Archival Weather

Republic

Farmingdale, New York (KFRG)

Report from: Friday, February 23, 2024 6:53 AM EST
Current time: Monday, June 24, 2024 5:44 AM EDT

Current weather – Weather history – Daily summaries
Weather forecast

Temperature6.1°C (43.0°F)
Wind chill3.8°C (38.8°F)
Dew point3.9°C (39.0°F)
Winds 6 kts (3.1 m/s, 6.9 mph) West (270°)
Visibility10 mi. (16.1 km)
Clouds Ceiling: Broken clouds 11,000 ft. (3,353 m)
Altimeter29.52 in.Hg (1000 mB)
Precip last 3 hours0.01 in. (0 mm)
Precip last 24 hours0.05 in. (1 mm)
Relative humidity86 %
Density altitude-484 ft. (-148 m)
Sea-level pressure100.0 kPa (1000 mB, 29.52 in.Hg)
Max temp last 6 hours6.7°C (44.1°F)
Min temp last 6 hours5.0°C (41.0°F)
Remarks Fully automated report
Automated weather observing station without precipitation discriminator
Pressure falling more slowly
Flight conditions Visual Meteorological Conditions
Raw dataKFRG 231153Z AUTO 27006KT 10SM BKN110 06/04 A2952 RMK AO1 SLP995 60001 70005 T00610039 10067 20050 56018
An error has occurred. This application may no longer respond until reloaded. Reload 🗙